Time;durP1;ratioP1;P1;durP2;ratioP2;P2;SDS_P1;SDS_P2;PMS_P1;PMS_P2;Temp;Humidity;BMP_temperature;BMP_pressure;BME280_temperature;BME280_humidity;BME280_pressure;Samples;Min_cycle;Max_cycle;Signal;HPM_P1;HPM_P2
2022/06/09 14:07:13;;;;;;;2.70;1.65;;;25.20;43.30;;;20.24;46.45;95687.63;5133532;27;20447;-51
2022/06/09 14:09:40;;;;;;;3.00;2.17;;;26.30;42.20;;;20.98;48.47;95693.69;5118332;27;20035;-53
2022/06/09 14:12:06;;;;;;;5.47;2.72;;;27.80;40.00;;;21.94;43.14;95691.81;5106952;28;20391;-50
2022/06/09 14:14:32;;;;;;;4.72;1.50;;;29.40;37.80;;;22.19;42.02;95702.75;5110074;28;20390;-49
2022/06/09 14:16:58;;;;;;;4.00;1.80;;;30.20;35.40;;;22.32;41.93;95698.16;5091445;28;20036;-50
2022/06/09 14:19:27;;;;;;;2.30;1.40;;;30.50;33.80;;;21.92;40.10;95701.41;5109974;28;20394;-50
2022/06/09 14:21:53;;;;;;;2.97;1.50;;;30.40;32.80;;;21.79;41.35;95711.41;5108393;28;20465;-48
2022/06/09 14:24:23;;;;;;;4.90;1.20;;;30.00;32.20;;;21.03;47.53;95715.94;5096231;28;20024;-47
2022/06/09 14:26:56;;;;;;;3.28;1.33;;;29.60;32.70;;;20.80;48.35;95712.72;5118322;28;20028;-47
2022/06/09 14:29:22;;;;;;;1.98;1.33;;;29.00;33.30;;;20.85;49.12;95730.69;5095641;28;20085;-49
2022/06/09 14:31:48;;;;;;;2.47;1.30;;;28.50;34.10;;;20.47;50.38;95728.78;5090345;28;20032;-48
2022/06/09 14:34:16;;;;;;;1.20;1.10;;;28.10;35.50;;;20.42;51.44;95731.63;5106780;28;20055;-48
2022/06/09 14:36:44;;;;;;;1.92;1.00;;;27.70;35.50;;;20.10;52.78;95735.72;5115727;28;20080;-51
2022/06/09 14:39:19;;;;;;;4.28;1.42;;;27.50;36.10;;;19.75;51.90;95726.88;5118440;28;20019;-51
2022/06/09 14:41:46;;;;;;;3.15;1.20;;;27.30;36.90;;;19.51;52.60;95725.41;5096705;28;20085;-47
2022/06/09 14:44:15;;;;;;;1.98;1.30;;;27.30;36.50;;;19.59;53.12;95732.72;5117165;28;20047;-47
2022/06/09 14:46:45;;;;;;;3.35;1.33;;;27.30;36.70;;;19.72;53.59;95736.41;5112070;27;20432;-48
2022/06/09 14:49:21;;;;;;;2.33;1.30;;;27.20;37.10;;;19.53;52.97;95736.69;5104147;28;20062;-48
2022/06/09 14:51:48;;;;;;;3.15;1.50;;;27.20;37.20;;;19.44;51.60;95741.28;5085805;28;20049;-53
2022/06/09 14:54:15;;;;;;;2.78;1.60;;;27.30;36.70;;;19.57;52.45;95732.25;5118364;28;20032;-48
2022/06/09 14:56:46;;;;;;;2.00;1.25;;;27.70;36.60;;;19.85;49.60;95738.13;5117790;28;20059;-47
2022/06/09 14:59:15;;;;;;;4.07;1.25;;;27.80;36.10;;;20.04;52.52;95740.50;5119031;28;20027;-48
2022/06/09 15:01:41;;;;;;;4.72;1.50;;;27.60;36.60;;;19.96;52.93;95744.03;5093983;28;20081;-48
2022/06/09 15:04:10;;;;;;;4.95;1.52;;;27.20;37.10;;;19.54;50.68;95735.56;5113955;28;20387;-48
2022/06/09 15:06:36;;;;;;;3.50;1.40;;;26.70;37.10;;;19.33;52.33;95743.50;5117309;28;20131;-52
2022/06/09 15:09:05;;;;;;;4.57;1.17;;;26.30;37.50;;;19.13;54.42;95738.72;5111451;28;20035;-48
2022/06/09 15:11:33;;;;;;;4.63;1.35;;;25.90;38.20;;;18.59;53.79;95738.84;5108865;28;20020;-50
2022/06/09 15:13:59;;;;;;;2.63;1.33;;;25.70;38.00;;;18.64;55.39;95744.09;5107229;28;20028;-52
2022/06/09 15:16:29;;;;;;;3.10;1.40;;;25.50;38.50;;;18.62;52.91;95749.03;5104950;28;20104;-53
2022/06/09 15:18:56;;;;;;;2.20;1.20;;;25.30;38.70;;;18.60;52.92;95750.44;5075323;28;20110;-53
2022/06/09 15:21:23;;;;;;;3.83;1.20;;;25.00;39.00;;;18.55;54.49;95753.25;5100280;28;20027;-52
2022/06/09 15:23:49;;;;;;;3.47;1.25;;;24.60;39.80;;;18.06;54.58;95763.16;5105443;28;20034;-52
2022/06/09 15:26:19;;;;;;;2.75;1.20;;;24.10;40.40;;;17.49;55.71;95771.75;5098012;28;20118;-55
2022/06/09 15:28:52;;;;;;;3.92;1.10;;;23.70;41.00;;;17.13;56.97;95782.47;5082391;28;20021;-52
2022/06/09 15:31:18;;;;;;;;;;;23.10;41.80;;;17.18;66.02;95801.22;5077417;28;20390;-52
2022/06/09 15:33:47;;;;;;;4.28;1.95;;;22.60;42.30;;;16.73;65.12;95795.59;5077243;28;19919;-52
2022/06/09 15:36:25;;;;;;;5.70;1.80;;;22.20;44.60;;;15.81;70.75;95816.00;5095087;28;20031;-54
2022/06/09 15:38:53;;;;;;;4.43;1.48;;;21.50;47.60;;;15.66;71.68;95815.09;5095034;28;20024;-51
2022/06/09 15:41:22;;;;;;;3.30;1.70;;;20.90;48.80;;;15.54;72.60;95813.94;5094781;28;20368;-52
2022/06/09 15:43:48;;;;;;;3.95;1.80;;;20.40;50.40;;;15.09;73.27;95802.72;5070845;28;20174;-51
2022/06/09 15:46:13;;;;;;;6.63;1.90;;;20.10;51.20;;;14.94;74.58;95804.50;5093335;28;20107;-55
2022/06/09 15:48:40;;;;;;;8.18;2.60;;;19.80;51.90;;;14.95;74.86;95798.06;5097875;28;20428;-52
2022/06/09 15:51:09;;;;;;;5.35;1.80;;;19.70;52.10;;;14.91;74.98;95802.38;5076245;28;20040;-54
2022/06/09 15:53:35;;;;;;;17.23;6.45;;;19.60;52.60;;;14.90;75.22;95803.47;5075555;28;20047;-50
2022/06/09 15:56:01;;;;;;;5.85;2.30;;;19.60;52.80;;;14.91;74.57;95810.44;5074655;28;20085;-52
2022/06/09 15:58:27;;;;;;;4.72;2.08;;;19.70;53.00;;;14.99;73.93;95809.03;5094249;28;20035;-52
2022/06/09 16:00:55;;;;;;;4.28;1.98;;;19.80;52.90;;;15.13;75.48;95809.09;5073452;28;20036;-52
2022/06/09 16:03:21;;;;;;;5.53;1.83;;;20.00;52.90;;;15.09;71.37;95805.41;5095011;28;20032;-54
2022/06/09 16:05:50;;;;;;;4.00;1.42;;;20.20;52.70;;;15.10;71.50;95801.63;5094408;28;20051;-53
2022/06/09 16:08:19;;;;;;;2.35;1.42;;;20.30;52.60;;;15.16;75.55;95795.91;5094184;28;20035;-51
2022/06/09 16:10:49;;;;;;;4.72;1.65;;;20.20;53.20;;;15.14;75.20;95791.94;5076418;28;20066;-54
2022/06/09 16:13:15;;;;;;;5.45;1.70;;;20.00;53.60;;;15.06;73.75;95796.03;5093065;28;20024;-55
2022/06/09 16:15:45;;;;;;;3.55;1.70;;;19.90;53.80;;;14.99;74.33;95796.41;5090535;28;20027;-53
2022/06/09 16:18:14;;;;;;;4.65;2.08;;;19.80;54.20;;;14.90;73.84;95789.28;5090780;28;20086;-51
2022/06/09 16:20:46;;;;;;;3.55;1.50;;;19.70;54.30;;;14.86;73.97;95801.66;5074099;28;20453;-55
2022/06/09 16:23:13;;;;;;;2.10;1.50;;;19.60;54.40;;;14.81;75.49;95794.47;5071595;28;20059;-51
2022/06/09 16:25:40;;;;;;;4.82;2.10;;;19.50;54.60;;;14.62;72.98;95796.28;5088599;28;20070;-54
2022/06/09 16:28:07;;;;;;;5.20;1.70;;;19.50;54.60;;;14.52;72.47;95805.25;5057211;28;20070;-52
2022/06/09 16:30:41;;;;;;;2.33;1.50;;;19.50;54.40;;;14.61;73.82;95816.94;5074876;28;20490;-50
2022/06/09 16:33:07;;;;;;;5.28;1.65;;;19.50;54.80;;;14.38;73.38;95818.47;5090557;28;20031;-51
2022/06/09 16:35:33;;;;;;;2.65;1.30;;;19.60;54.50;;;14.44;72.44;95827.25;5072336;28;20078;-53
2022/06/09 16:38:06;;;;;;;4.35;1.10;;;19.70;54.20;;;14.60;72.64;95826.06;5072255;28;20058;-53
2022/06/09 16:40:36;;;;;;;2.78;1.17;;;20.40;53.30;;;14.77;73.01;95834.47;5092956;28;20410;-54
2022/06/09 16:43:06;;;;;;;2.22;1.17;;;20.60;52.90;;;14.89;72.03;95830.59;5091644;28;20036;-55
2022/06/09 16:45:32;;;;;;;4.15;1.10;;;20.40;53.10;;;14.97;72.03;95832.63;5075024;28;20031;-55
2022/06/09 16:48:04;;;;;;;3.17;1.13;;;20.30;53.50;;;14.80;69.67;95843.81;5090074;28;20106;-56
2022/06/09 16:50:33;;;;;;;4.22;1.40;;;20.20;53.40;;;14.87;72.08;95844.28;5089401;28;20437;-55
2022/06/09 16:53:04;;;;;;;2.60;1.00;;;20.10;53.60;;;14.94;71.68;95855.47;5093267;28;20051;-55
2022/06/09 16:55:30;;;;;;;1.88;1.33;;;20.00;53.90;;;14.94;70.77;95855.47;5075324;28;20279;-52
2022/06/09 16:57:56;;;;;;;5.65;1.42;;;20.00;53.90;;;15.01;71.69;95852.44;5094807;28;20045;-51
2022/06/09 17:00:27;;;;;;;5.35;1.50;;;20.00;54.00;;;15.01;71.56;95852.44;5093070;28;20031;-48
2022/06/09 17:02:59;;;;;;;3.50;1.35;;;20.10;54.20;;;15.07;71.45;95853.97;5094096;28;20088;-55
2022/06/09 17:05:30;;;;;;;4.30;1.45;;;20.20;54.10;;;14.99;69.84;95862.66;5092429;28;20041;-54
2022/06/09 17:08:02;;;;;;;3.58;0.88;;;20.10;53.90;;;14.68;70.22;95862.19;5091589;28;21523;-55
2022/06/09 17:10:33;;;;;;;3.60;1.10;;;20.10;53.80;;;14.60;70.99;95870.84;5094223;28;20017;-51
2022/06/09 17:13:00;;;;;;;6.15;1.50;;;20.00;53.80;;;14.67;71.45;95871.31;5092547;28;20024;-51
2022/06/09 17:15:28;;;;;;;2.88;1.08;;;19.80;54.00;;;14.64;71.29;95874.56;5090632;28;20049;-48
2022/06/09 17:17:54;;;;;;;3.88;1.10;;;19.70;54.40;;;14.53;70.33;95877.31;5089763;28;20036;-51
2022/06/09 17:20:21;;;;;;;3.30;1.10;;;19.50;54.50;;;14.44;70.74;95881.66;5095942;28;20062;-54
2022/06/09 17:22:49;;;;;;;2.10;1.10;;;19.40;54.80;;;14.32;71.80;95887.41;5100474;28;20044;-55
2022/06/09 17:25:15;;;;;;;6.60;1.55;;;19.20;55.00;;;14.31;72.98;95893.81;5098675;28;20031;-50
2022/06/09 17:27:41;;;;;;;2.13;0.80;;;19.00;55.40;;;14.37;72.68;95896.47;5091593;28;20478;-47
2022/06/09 17:30:12;;;;;;;3.05;1.52;;;18.80;55.70;;;14.34;72.68;95892.47;5096927;28;20101;-51
2022/06/09 17:32:38;;;;;;;2.45;1.17;;;18.70;56.10;;;14.20;71.63;95905.72;5099934;28;20394;-53
2022/06/09 17:35:05;;;;;;;4.13;1.35;;;18.60;56.20;;;14.12;72.78;95900.94;5101136;28;20038;-55
2022/06/09 17:37:31;;;;;;;3.78;1.40;;;18.50;56.50;;;14.11;72.49;95915.44;5100159;28;20028;-51
2022/06/09 17:39:57;;;;;;;4.47;1.17;;;18.30;56.60;;;14.10;72.84;95916.47;5102071;28;20161;-54
2022/06/09 17:42:22;;;;;;;2.50;1.08;;;18.20;56.90;;;13.91;71.66;95910.97;5100118;28;20553;-55
2022/06/09 17:44:49;;;;;;;1.80;1.00;;;18.10;56.90;;;13.82;72.16;95909.97;5098759;28;20038;-54
2022/06/09 17:47:17;;;;;;;2.85;1.20;;;18.00;57.00;;;13.74;71.40;95927.41;5096129;28;20020;-54
2022/06/09 17:49:43;;;;;;;2.35;1.10;;;17.90;57.10;;;13.63;73.43;95929.34;5092823;28;20368;-54
2022/06/09 17:52:10;;;;;;;4.15;1.20;;;17.70;57.30;;;13.59;72.29;95939.00;5100727;28;20474;-51
2022/06/09 17:54:36;;;;;;;2.95;1.48;;;17.60;57.50;;;13.57;73.29;95941.16;5099738;28;20042;-52
2022/06/09 17:57:03;;;;;;;1.98;0.95;;;17.50;57.70;;;13.58;75.58;95945.44;5095378;28;20055;-54
2022/06/09 17:59:29;;;;;;;4.68;1.27;;;17.40;58.20;;;13.52;76.57;95946.53;5097823;28;20540;-52
2022/06/09 18:01:55;;;;;;;4.20;1.38;;;17.30;58.60;;;13.47;75.42;95948.41;5099385;28;20167;-52
2022/06/09 18:04:21;;;;;;;2.85;1.25;;;17.30;58.70;;;13.39;77.80;95947.91;5101989;28;20058;-50
2022/06/09 18:06:47;;;;;;;2.05;1.20;;;17.20;59.00;;;13.23;76.21;95954.38;5075213;28;20049;-52
2022/06/09 18:09:16;;;;;;;4.80;1.38;;;17.10;59.30;;;13.22;78.39;95952.75;5058455;28;20356;-49
2022/06/09 18:11:41;;;;;;;3.35;1.40;;;17.00;59.50;;;13.19;79.89;95959.47;5051621;28;20037;-48
2022/06/09 18:14:10;;;;;;;2.47;1.27;;;17.00;60.00;;;13.11;80.07;95949.31;5059463;28;20422;-49
2022/06/09 18:16:40;;;;;;;4.00;1.50;;;16.90;60.60;;;13.02;80.54;95950.94;5059448;28;20344;-49
2022/06/09 18:19:12;;;;;;;3.88;1.77;;;16.80;60.90;;;12.89;80.38;95956.84;5051168;28;20060;-49
2022/06/09 18:21:37;;;;;;;3.53;1.13;;;16.70;61.20;;;12.73;80.22;95950.72;5050461;28;20094;-53
2022/06/09 18:24:03;;;;;;;1.38;0.95;;;16.60;61.30;;;12.61;80.15;95952.84;5049607;28;20107;-50
2022/06/09 18:26:30;;;;;;;5.72;1.85;;;16.50;61.40;;;12.48;79.84;95965.69;5050320;28;20398;-49
2022/06/09 18:28:55;;;;;;;1.75;0.90;;;16.40;61.60;;;12.39;80.42;95961.94;5050260;28;20111;-49
2022/06/09 18:31:22;;;;;;;5.55;1.75;;;16.40;61.80;;;12.26;81.67;95965.94;5051131;28;20116;-50
2022/06/09 18:33:51;;;;;;;4.07;1.50;;;16.30;62.10;;;12.13;81.79;95966.44;5050857;28;20131;-49
2022/06/09 18:36:20;;;;;;;3.05;1.40;;;16.30;62.50;;;12.13;82.16;95966.44;5050728;28;20034;-49
2022/06/09 18:38:46;;;;;;;3.88;1.13;;;16.20;62.50;;;12.17;81.75;95966.72;5066208;28;20029;-49
2022/06/09 18:41:12;;;;;;;2.58;1.17;;;16.10;62.70;;;12.16;82.28;95960.59;5049798;28;20033;-49
2022/06/09 18:43:41;;;;;;;3.00;1.35;;;16.10;62.90;;;12.21;82.66;95967.78;5066152;28;20115;-52
2022/06/09 18:46:11;;;;;;;5.57;1.23;;;16.00;63.30;;;12.17;81.16;95967.53;5066293;28;20037;-50
2022/06/09 18:48:37;;;;;;;2.08;1.00;;;16.00;63.40;;;12.08;80.56;95962.97;5050851;28;20526;-54
2022/06/09 18:51:03;;;;;;;3.45;1.00;;;15.90;63.20;;;12.07;81.03;95974.72;5050724;28;20037;-52
2022/06/09 18:53:30;;;;;;;2.97;1.15;;;15.90;63.30;;;12.06;81.47;95979.22;5053431;28;20021;-55
2022/06/09 18:55:56;;;;;;;3.58;1.10;;;15.80;63.40;;;12.05;82.36;95982.97;5054649;28;20029;-51
2022/06/09 18:58:22;;;;;;;5.90;1.48;;;15.80;63.60;;;12.02;82.69;95983.50;5063037;28;20542;-50
2022/06/09 19:00:49;;;;;;;2.13;1.30;;;15.80;63.90;;;11.93;83.11;95983.22;5048486;28;20025;-54
2022/06/09 19:03:15;;;;;;;3.58;1.50;;;15.70;64.10;;;11.91;82.96;95987.19;5058349;28;20030;-50
2022/06/09 19:05:46;;;;;;;3.15;1.40;;;15.70;64.70;;;11.86;83.13;95988.00;5070631;28;20040;-52
2022/06/09 19:08:17;;;;;;;4.78;1.58;;;15.60;64.40;;;11.86;83.64;95990.66;5094507;28;20020;-55
2022/06/09 19:10:43;;;;;;;5.85;1.50;;;15.60;64.60;;;11.86;83.97;95998.69;5093448;28;20020;-50
2022/06/09 19:13:09;;;;;;;3.33;1.75;;;15.60;64.70;;;11.84;83.89;95999.97;5089176;28;20501;-51
2022/06/09 19:15:43;;;;;;;2.35;1.40;;;15.50;64.80;;;11.79;84.77;96000.78;5069813;28;20040;-51
2022/06/09 19:18:09;;;;;;;3.00;1.83;;;15.50;65.30;;;11.74;84.79;95995.41;5074696;28;20394;-47
2022/06/09 19:20:39;;;;;;;7.65;1.90;;;15.50;65.20;;;11.70;85.06;95997.78;5090865;28;20028;-50
2022/06/09 19:23:06;;;;;;;3.13;1.77;;;15.50;65.50;;;11.68;85.09;96012.47;5090181;28;20126;-53
2022/06/09 19:25:41;;;;;;;4.47;1.60;;;15.40;65.80;;;11.67;84.52;96019.66;5093045;28;20490;-54
2022/06/09 19:28:09;;;;;;;4.30;1.58;;;15.40;65.80;;;11.65;85.05;96016.44;5080718;28;20035;-55
2022/06/09 19:30:47;;;;;;;2.70;1.42;;;15.40;65.80;;;11.61;85.07;96010.03;5088948;28;20478;-51
2022/06/09 19:33:20;;;;;;;3.53;1.45;;;15.40;66.10;;;11.60;85.28;96010.31;5076910;28;20060;-56
2022/06/09 19:35:57;;;;;;;3.03;1.60;;;15.30;66.10;;;11.55;84.92;96008.41;5092681;28;20035;-55
2022/06/09 19:38:28;;;;;;;4.85;1.58;;;15.30;66.40;;;11.56;85.44;96018.84;5092189;28;20818;-54
2022/06/09 19:40:54;;;;;;;4.63;1.50;;;15.30;66.30;;;11.54;85.35;96025.47;5091651;28;20030;-50
2022/06/09 19:43:23;;;;;;;4.15;1.52;;;15.30;66.30;;;11.50;85.82;96016.38;5074638;28;20085;-51
2022/06/09 19:45:49;;;;;;;4.55;1.70;;;15.20;66.40;;;11.47;85.83;96028.38;5091228;28;20554;-52
2022/06/09 19:48:15;;;;;;;4.57;1.80;;;15.20;66.40;;;11.41;86.90;96032.09;5074776;28;20024;-55
2022/06/09 19:50:51;;;;;;;9.05;2.00;;;15.20;66.50;;;11.38;86.90;96029.94;5092615;28;20107;-49
2022/06/09 19:53:22;;;;;;;6.13;1.90;;;15.20;66.70;;;11.29;86.89;96028.81;5091321;28;20024;-50
2022/06/09 19:55:53;;;;;;;4.80;2.20;;;15.20;66.80;;;11.25;86.65;96043.69;5091462;28;20028;-49
2022/06/09 19:58:28;;;;;;;4.13;1.70;;;15.10;66.90;;;11.20;86.24;96047.16;5091539;28;20024;-52
2022/06/09 20:01:06;;;;;;;6.38;2.05;;;15.10;66.90;;;11.13;86.13;96037.78;5092528;28;20059;-51
2022/06/09 20:03:33;;;;;;;5.82;1.98;;;15.00;67.00;;;11.05;85.78;96041.72;5090765;28;20039;-52
2022/06/09 20:06:15;;;;;;;3.38;1.58;;;15.00;66.80;;;11.02;86.18;96048.34;5075449;28;20051;-50
2022/06/09 20:08:41;;;;;;;8.38;2.20;;;14.90;67.10;;;10.97;86.40;96052.84;5067608;28;20033;-49
2022/06/09 20:11:10;;;;;;;3.85;2.03;;;14.90;66.80;;;10.94;86.38;96051.50;5052300;28;20048;-50
2022/06/09 20:13:41;;;;;;;1.95;1.60;;;14.90;67.10;;;10.82;86.14;96062.34;5049482;28;20025;-53
2022/06/09 20:16:18;;;;;;;5.72;2.22;;;14.80;67.20;;;10.87;86.77;96065.06;5054677;28;20057;-54
2022/06/09 20:18:49;;;;;;;6.15;2.15;;;14.80;67.40;;;10.86;86.71;96068.75;5052086;28;20029;-54
2022/06/09 20:21:16;;;;;;;6.25;1.95;;;14.70;67.30;;;10.82;86.94;96065.00;5052121;28;20633;-52
2022/06/09 20:23:44;;;;;;;6.00;2.38;;;14.70;67.40;;;10.82;87.20;96077.53;5058442;28;20029;-53
2022/06/09 20:26:25;;;;;;;4.63;2.17;;;14.60;67.80;;;10.81;86.92;96076.72;5052900;28;20052;-50
2022/06/09 20:28:52;;;;;;;4.88;2.40;;;14.70;67.80;;;10.71;87.16;96070.50;5068280;28;20082;-53
2022/06/09 20:31:30;;;;;;;2.67;2.10;;;14.60;67.60;;;10.76;87.38;96086.53;5068481;28;20059;-50
2022/06/09 20:34:00;;;;;;;3.20;2.05;;;14.60;68.00;;;10.72;87.71;96082.75;5067587;28;20048;-53
2022/06/09 20:36:27;;;;;;;4.95;2.63;;;14.60;67.90;;;10.65;88.18;96086.44;5052840;28;20032;-52
2022/06/09 20:39:02;;;;;;;3.88;2.67;;;14.50;68.00;;;10.68;88.88;96085.13;5068009;28;20400;-55
2022/06/09 20:41:31;;;;;;;6.03;2.03;;;14.50;68.30;;;10.70;88.85;96091.00;5050490;28;20090;-52
2022/06/09 20:43:59;;;;;;;4.38;2.58;;;14.50;68.40;;;10.70;88.67;96090.22;5050771;28;20116;-54
2022/06/09 20:46:39;;;;;;;7.20;2.72;;;14.50;68.40;;;10.70;89.08;96093.66;5067938;28;20063;-52
2022/06/09 20:49:17;;;;;;;8.32;2.53;;;14.50;68.80;;;10.69;88.88;96097.41;5055644;28;20396;-50
2022/06/09 20:51:52;;;;;;;4.95;2.70;;;14.50;68.90;;;10.70;88.98;96091.00;5067721;28;20379;-50
2022/06/09 20:54:18;;;;;;;5.20;2.53;;;14.50;68.80;;;10.72;88.93;96096.91;5052052;28;20017;-46
2022/06/09 20:56:43;;;;;;;7.18;2.85;;;14.50;68.80;;;10.72;88.74;96098.72;5051199;28;20024;-50
2022/06/09 20:59:10;;;;;;;3.83;2.72;;;14.50;68.90;;;10.69;88.61;96102.72;5052495;28;20033;-51
2022/06/09 21:01:36;;;;;;;8.63;2.42;;;14.50;69.00;;;10.71;88.87;96103.25;5067203;28;20044;-50
2022/06/09 21:04:08;;;;;;;4.40;2.25;;;14.50;69.10;;;10.76;88.44;96111.31;5067326;28;20032;-51
2022/06/09 21:06:43;;;;;;;9.40;2.45;;;14.60;69.20;;;10.74;88.38;96110.75;5083012;28;20044;-50
2022/06/09 21:09:11;;;;;;;7.68;2.55;;;14.50;69.30;;;10.76;88.37;96116.66;5092372;28;20085;-50
2022/06/09 21:20:13;;;;;;;6.30;2.53;;;14.50;69.20;;;10.65;87.95;96094.44;5033124;28;20044;-46
2022/06/09 21:22:48;;;;;;;6.25;2.50;;;14.50;69.20;;;10.58;87.02;96107.13;5017674;28;20029;-48
2022/06/09 21:25:17;;;;;;;3.88;2.17;;;14.50;69.20;;;10.65;87.29;96107.75;5052736;28;20029;-47
2022/06/09 21:27:43;;;;;;;3.45;1.75;;;14.40;69.00;;;10.63;87.42;96109.88;5052702;28;20630;-47
2022/06/09 21:30:10;;;;;;;8.23;1.95;;;14.40;69.00;;;10.60;87.25;96101.56;5030072;28;20129;-46
2022/06/09 21:32:39;;;;;;;5.20;1.98;;;14.40;69.00;;;10.60;87.00;96113.03;5015136;28;20365;-48
2022/06/09 21:35:06;;;;;;;5.68;2.33;;;14.40;69.10;;;10.57;87.00;96104.75;5032813;28;20029;-46
2022/06/09 21:37:32;;;;;;;3.75;1.88;;;14.40;69.00;;;10.50;86.98;96117.44;5014869;28;20025;-47
2022/06/09 21:40:02;;;;;;;5.80;1.92;;;14.40;69.00;;;10.49;86.78;96119.28;5015280;28;20032;-46
2022/06/09 21:42:30;;;;;;;7.68;2.20;;;14.30;69.00;;;10.44;87.35;96115.78;5014754;28;20472;-48
2022/06/09 21:44:59;;;;;;;5.28;1.92;;;14.40;69.20;;;10.46;87.07;96121.66;5032636;28;20033;-46
2022/06/09 21:47:40;;;;;;;9.13;2.38;;;14.30;69.10;;;10.38;87.82;96118.41;5032440;28;20071;-47
2022/06/09 21:50:08;;;;;;;6.57;2.30;;;14.30;69.30;;;10.38;87.76;96129.03;5014870;28;20079;-46
2022/06/09 21:52:43;;;;;;;7.43;2.40;;;14.20;69.10;;;10.30;87.69;96121.50;5014887;28;20029;-47
2022/06/09 21:55:09;;;;;;;8.18;2.08;;;14.20;69.30;;;10.28;87.59;96134.25;5015208;28;20538;-46
2022/06/09 21:57:41;;;;;;;7.35;2.55;;;14.20;69.10;;;10.22;87.79;96131.75;5032433;28;20033;-47
2022/06/09 22:00:28;;;;;;;4.30;2.60;;;14.20;69.40;;;10.20;87.76;96138.13;5014862;28;20022;-49
2022/06/09 22:03:06;;;;;;;5.07;2.30;;;14.10;69.30;;;10.16;87.86;96137.03;5032364;28;20472;-47
2022/06/09 22:05:33;;;;;;;9.13;2.90;;;14.10;69.40;;;10.12;88.12;96135.09;5014601;28;20033;-47
2022/06/09 22:08:01;;;;;;;5.32;2.60;;;14.00;69.20;;;10.08;88.70;96136.63;4998329;28;20041;-49
2022/06/09 22:10:32;;;;;;;6.50;2.72;;;14.00;69.40;;;10.08;89.01;96139.31;4998244;28;20022;-47
2022/06/09 22:13:02;;;;;;;4.50;2.28;;;14.00;69.50;;;10.02;88.71;96133.09;5031926;28;20038;-46
2022/06/09 22:15:29;;;;;;;5.10;2.40;;;14.00;69.50;;;10.00;88.79;96131.75;5014677;28;20433;-47
2022/06/09 22:17:58;;;;;;;8.07;2.67;;;13.90;69.40;;;9.94;89.24;96130.88;5014587;28;20029;-46
2022/06/09 22:20:32;;;;;;;8.80;2.70;;;13.80;69.50;;;9.93;89.15;96135.41;5014599;28;20018;-47
2022/06/09 22:23:01;;;;;;;7.80;2.60;;;13.80;69.60;;;9.88;89.20;96137.19;5032283;28;20034;-47
2022/06/09 22:25:29;;;;;;;6.75;2.55;;;13.80;69.70;;;9.82;89.47;96133.66;5031987;28;20052;-47
